Terminal Aerodrome Forecast
Issued by NWS

Home | Current Version | Previous Version | Text Only | Print | Product List | Glossary On
Versions: 1 2 3 4 5 6 7 8 9 10 11 12 13 14 15 16 17 18 19 20 21 22 23 24 25 26 27 28 29 30 31 32 33 34 35 36 37 38 39 40 41
000
FTUS44 KLIX 172340
TAFHDC
TAF
KHDC 172340Z 1800/1824 28003KT P6SM SKC
     FM180200 VRB03KT P6SM BKN025
     FM181000 08004KT 6SM SHRA BKN020
      TEMPO 1814/1818 3SM TSRA OVC010CB
     FM181800 14006KT 4SM SHRA BKN020
      TEMPO 1818/1822 VRB15G30KT 1SM TSRA BR BKN015CB=

USA.gov is the U.S. government's official web portal to all federal, state and local government web resources and services.